KMEI/MEI METAR and TAF weather

Enter ICAO airport designator
Station Type Date Time Source
KMEI METAR 2021/07/24 20:24 UTC NOAA

KMEI 242024Z 06005KT 10SM TS CLR 33/24 A3003 RMK AO2 LTG DSNT N AND NE TSB18 T03330244


Station Type Date Time Source
KMEI Decoded METAR 2021/07/24 20:24 UTC NOAA

MERIDIAN KEY FIELD, MS, United States (KMEI) 32-20N 088-45W 89M
Jul 24, 2021 - 04:24 PM EDT / 2021.07.24 2024 UTC
Wind: from the ENE (060 degrees) at 6 MPH (5 KT):0
Visibility: 10 mile(s):0
Sky conditions: clear
Weather: thunder; Lightning observed
Temperature: 91.9 F (33.3 C)
Heat index: 103.8 F (39.9 C):1
Dew Point: 75.9 F (24.4 C)
Relative Humidity: 59%
Pressure (altimeter): 30.03 in. Hg (1016 hPa)
ob: KMEI 242024Z 06005KT 10SM TS CLR 33/24 A3003 RMK AO2 LTG DSNT N AND NE TSB18 T03330244
cycle: 20

Station Type Date Time Source
KMEI TAF 2021/07/24 18:24 UTC NOAA

TAF KMEI 241722Z 2418/2518 34007KT P6SM VCTS BKN050CB
FM242300 33005KT P6SM BKN250
FM250800 16001KT 5SM BR OVC100
FM251300 34005KT P6SM SCT250

Example: see airport list